createdAt,value
2023-10-24T00:01:51.792Z,3.60
2023-10-24T00:04:26.457Z,4.23
2023-10-24T00:06:53.148Z,4.20
2023-10-24T00:09:44.818Z,4.37
2023-10-24T00:12:11.479Z,3.83
2023-10-24T00:14:39.622Z,4.10
2023-10-24T00:17:09.425Z,4.83
2023-10-24T00:19:36.205Z,4.87
2023-10-24T00:22:02.969Z,4.10
2023-10-24T00:24:29.792Z,4.40
2023-10-24T00:26:58.269Z,4.37
2023-10-24T00:29:29.465Z,3.97
2023-10-24T00:31:56.328Z,4.23
2023-10-24T00:34:23.043Z,4.27
2023-10-24T00:36:58.794Z,4.63
2023-10-24T00:39:25.555Z,4.17
2023-10-24T00:41:55.168Z,3.90
2023-10-24T00:44:33.940Z,4.30
2023-10-24T00:47:01.903Z,4.10
2023-10-24T00:49:29.001Z,4.20
2023-10-24T00:52:21.161Z,4.00
2023-10-24T00:54:48.238Z,4.10
2023-10-24T00:57:14.994Z,4.60
2023-10-24T00:59:42.286Z,4.07
2023-10-24T01:02:18.128Z,3.47
2023-10-24T01:04:45.129Z,3.20
2023-10-24T01:07:11.955Z,3.47
2023-10-24T01:09:46.257Z,3.37
2023-10-24T01:12:12.955Z,4.10
2023-10-24T01:14:41.413Z,3.53
2023-10-24T01:17:26.412Z,3.20
2023-10-24T01:19:53.204Z,3.37
2023-10-24T01:22:20.187Z,3.20
2023-10-24T01:24:52.684Z,3.73
2023-10-24T01:27:20.297Z,3.27
2023-10-24T01:29:47.029Z,3.20
2023-10-24T01:32:30.376Z,3.57
2023-10-24T01:35:13.506Z,3.27
2023-10-24T01:38:05.764Z,3.30
2023-10-24T01:40:32.850Z,3.17
2023-10-24T01:42:59.673Z,2.90
2023-10-24T01:45:26.626Z,3.07
2023-10-24T01:47:53.380Z,3.03
2023-10-24T01:50:20.118Z,2.63
2023-10-24T01:52:49.952Z,2.77
2023-10-24T01:55:16.740Z,2.70
2023-10-24T01:57:43.644Z,3.17
2023-10-24T02:00:11.025Z,3.10
2023-10-24T02:02:46.235Z,2.90
2023-10-24T02:05:16.152Z,2.90
2023-10-24T02:07:51.999Z,2.83
2023-10-24T02:10:18.789Z,2.70
2023-10-24T02:12:47.455Z,2.60
2023-10-24T02:15:23.411Z,3.40
2023-10-24T02:17:50.151Z,3.23
2023-10-24T02:20:18.004Z,2.97
2023-10-24T02:22:53.397Z,3.27
2023-10-24T02:25:20.068Z,3.23
2023-10-24T02:27:48.305Z,3.30
2023-10-24T02:30:15.039Z,2.70
2023-10-24T02:32:46.901Z,3.03
2023-10-24T02:35:16.141Z,2.60
2023-10-24T02:37:42.867Z,2.93
2023-10-24T02:40:37.888Z,3.00
2023-10-24T02:43:04.778Z,3.00
2023-10-24T02:45:31.420Z,2.80
2023-10-24T02:47:58.139Z,2.63
2023-10-24T02:50:24.853Z,2.70
2023-10-24T02:52:57.201Z,2.70
2023-10-24T02:55:23.897Z,3.20
2023-10-24T02:57:50.684Z,2.60
2023-10-24T03:00:42.905Z,3.20
2023-10-24T03:03:12.692Z,2.90
2023-10-24T03:05:39.647Z,3.27
2023-10-24T03:08:06.978Z,2.80
2023-10-24T03:10:45.177Z,2.73
2023-10-24T03:13:11.846Z,2.90
2023-10-24T03:15:40.470Z,3.00
2023-10-24T03:18:15.530Z,3.10
2023-10-24T03:20:42.283Z,3.20
2023-10-24T03:23:10.575Z,3.00
2023-10-24T03:25:44.746Z,3.10
2023-10-24T03:28:11.605Z,3.30
2023-10-24T03:30:38.313Z,2.80
2023-10-24T03:33:19.408Z,3.10
2023-10-24T03:35:46.494Z,2.60
2023-10-24T03:38:13.176Z,2.87
2023-10-24T03:40:44.511Z,2.63
2023-10-24T03:43:11.278Z,2.70
2023-10-24T03:45:38.812Z,2.70
2023-10-24T03:48:06.002Z,2.80
2023-10-24T03:50:37.752Z,3.20
2023-10-24T03:53:05.368Z,2.70
2023-10-24T03:55:32.818Z,2.70
2023-10-24T03:58:00.074Z,2.53
2023-10-24T04:00:28.037Z,2.50
2023-10-24T04:02:55.897Z,2.37
2023-10-24T04:05:26.053Z,2.67
2023-10-24T04:07:52.836Z,2.30
2023-10-24T04:10:19.618Z,2.17
2023-10-24T04:12:53.458Z,2.50
2023-10-24T04:15:20.065Z,2.50
2023-10-24T04:17:46.901Z,2.87
2023-10-24T04:20:16.538Z,2.60
2023-10-24T04:22:53.779Z,2.63
2023-10-24T04:25:20.544Z,2.93
2023-10-24T04:33:15.314Z,2.40
2023-10-24T04:35:48.642Z,2.77
2023-10-24T04:38:15.592Z,2.33
2023-10-24T04:40:42.533Z,2.47
2023-10-24T04:43:09.944Z,2.90
2023-10-24T04:45:46.145Z,2.77
2023-10-24T04:48:12.921Z,2.83
2023-10-24T04:50:40.111Z,2.70
2023-10-24T04:53:14.373Z,2.40
2023-10-24T04:55:41.044Z,2.40
2023-10-24T04:58:08.159Z,2.70
2023-10-24T05:00:34.852Z,2.93
2023-10-24T05:03:19.182Z,2.77
2023-10-24T05:05:45.974Z,2.30
2023-10-24T05:08:15.841Z,2.40
2023-10-24T05:10:42.721Z,3.07
2023-10-24T05:13:09.680Z,2.53
2023-10-24T05:15:36.408Z,3.00
2023-10-24T05:18:03.514Z,2.40
2023-10-24T05:20:32.200Z,2.67
2023-10-24T05:22:58.909Z,2.70
2023-10-24T05:25:25.587Z,3.40
2023-10-24T05:27:52.330Z,2.47
2023-10-24T05:43:07.539Z,3.00
2023-10-24T05:46:06.824Z,2.87
2023-10-24T05:53:22.845Z,3.10
2023-10-24T06:03:42.219Z,2.83
2023-10-24T06:06:19.932Z,2.47
2023-10-24T06:09:06.153Z,2.70
2023-10-24T06:12:10.937Z,2.67
2023-10-24T06:19:04.804Z,2.90
2023-10-24T06:21:31.496Z,3.00
2023-10-24T06:24:01.193Z,3.40
2023-10-24T06:26:28.172Z,3.10
2023-10-24T06:28:55.936Z,2.63
2023-10-24T06:31:22.889Z,2.90
2023-10-24T06:33:49.675Z,3.10
2023-10-24T06:36:16.326Z,3.00
2023-10-24T06:38:43.089Z,2.97
2023-10-24T06:41:14.746Z,2.90
2023-10-24T06:43:41.475Z,2.90
2023-10-24T06:46:08.103Z,3.33
2023-10-24T06:48:42.552Z,3.27
2023-10-24T06:51:09.234Z,2.83
2023-10-24T06:53:35.893Z,2.73
2023-10-24T06:56:02.768Z,2.57
2023-10-24T06:58:35.748Z,3.00
2023-10-24T07:01:02.511Z,3.10
2023-10-24T07:03:29.404Z,2.83
2023-10-24T07:06:05.026Z,2.90
2023-10-24T07:08:32.136Z,3.07
2023-10-24T07:10:59.081Z,2.60
2023-10-24T07:13:33.451Z,3.00
2023-10-24T07:16:17.045Z,2.90
2023-10-24T07:18:46.887Z,3.00
2023-10-24T07:21:16.456Z,2.77
2023-10-24T07:23:43.099Z,2.77
2023-10-24T07:26:19.344Z,2.63
2023-10-24T07:28:46.028Z,3.10
2023-10-24T07:31:12.849Z,2.73
2023-10-24T07:33:39.508Z,2.60
2023-10-24T07:36:07.396Z,2.90
2023-10-24T07:38:37.076Z,3.30
2023-10-24T07:41:06.134Z,2.60
2023-10-24T07:43:33.192Z,2.77
2023-10-24T07:46:02.553Z,3.20
2023-10-24T07:48:32.927Z,2.60
2023-10-24T07:50:59.701Z,2.97
2023-10-24T07:53:34.767Z,3.40
2023-10-24T07:56:04.786Z,3.00
2023-10-24T07:58:33.936Z,3.03
2023-10-24T08:01:08.691Z,3.10
2023-10-24T08:03:35.549Z,3.10
2023-10-24T08:06:05.683Z,2.70
2023-10-24T08:08:43.669Z,2.93
2023-10-24T08:11:10.855Z,2.90
2023-10-24T08:13:37.606Z,2.90
2023-10-24T08:16:11.748Z,3.10
2023-10-24T08:18:42.864Z,3.03
2023-10-24T08:21:09.849Z,2.80
2023-10-24T08:23:41.979Z,2.93
2023-10-24T08:26:08.702Z,2.80
2023-10-24T08:28:38.383Z,3.30
2023-10-24T08:31:23.564Z,3.07
2023-10-24T08:34:15.790Z,2.73
2023-10-24T08:36:42.596Z,3.07
2023-10-24T08:39:09.363Z,2.80
2023-10-24T08:41:36.055Z,2.80
2023-10-24T08:44:03.788Z,2.70
2023-10-24T08:46:33.373Z,2.73
2023-10-24T08:49:00.682Z,2.70
2023-10-24T08:51:27.313Z,2.83
2023-10-24T08:53:53.998Z,2.60
2023-10-24T08:56:20.837Z,2.90
2023-10-24T08:58:48.597Z,2.53
2023-10-24T09:01:18.785Z,2.70
2023-10-24T09:03:46.389Z,3.40
2023-10-24T09:06:13.426Z,2.83
2023-10-24T09:08:46.101Z,3.40
2023-10-24T09:11:12.772Z,3.07
2023-10-24T09:13:39.934Z,3.87
2023-10-24T09:16:26.031Z,3.20
2023-10-24T09:18:52.785Z,3.50
2023-10-24T09:21:20.051Z,3.70
2023-10-24T09:23:49.231Z,3.43
2023-10-24T09:26:16.025Z,3.40
2023-10-24T09:28:42.858Z,4.17
2023-10-24T09:31:15.355Z,4.07
2023-10-24T09:33:42.366Z,3.90
2023-10-24T09:36:15.909Z,4.27
2023-10-24T09:38:53.579Z,4.57
2023-10-24T09:41:20.320Z,4.40
2023-10-24T09:43:49.372Z,4.03
2023-10-24T09:46:24.364Z,3.97
2023-10-24T09:48:52.317Z,3.63
2023-10-24T09:51:20.684Z,4.00
2023-10-24T09:53:53.234Z,3.80
2023-10-24T09:56:22.007Z,4.10
2023-10-24T09:58:48.702Z,3.67
2023-10-24T10:01:15.658Z,3.00
2023-10-24T10:03:54.530Z,3.10
2023-10-24T10:06:37.097Z,2.90
2023-10-24T10:09:13.183Z,3.33
2023-10-24T10:11:40.442Z,2.80
2023-10-24T10:14:13.151Z,3.00
2023-10-24T10:17:06.856Z,2.67
2023-10-24T10:19:36.419Z,2.60
2023-10-24T10:22:16.309Z,2.50
2023-10-24T10:25:04.284Z,2.20
2023-10-24T10:27:46.242Z,2.33
2023-10-24T10:30:52.784Z,2.50
2023-10-24T10:33:39.414Z,2.43
2023-10-24T10:36:16.253Z,2.77
2023-10-24T10:38:49.623Z,2.10
2023-10-24T10:41:23.795Z,2.33
2023-10-24T10:43:55.604Z,2.33
2023-10-24T10:46:28.565Z,2.33
2023-10-24T10:49:05.991Z,2.37
2023-10-24T10:51:38.137Z,2.60
2023-10-24T10:54:26.185Z,2.60
2023-10-24T10:56:53.366Z,2.30
2023-10-24T10:59:53.362Z,2.93
2023-10-24T11:02:42.927Z,2.10
2023-10-24T11:05:45.040Z,2.17
2023-10-24T11:08:23.830Z,2.70
2023-10-24T11:11:02.242Z,2.63
2023-10-24T11:13:53.208Z,2.20
2023-10-24T11:16:34.990Z,1.93
2023-10-24T11:19:04.835Z,2.20
2023-10-24T11:21:46.272Z,1.93
2023-10-24T11:24:27.504Z,1.73
2023-10-24T11:27:00.615Z,2.30
2023-10-24T11:29:32.183Z,2.30
2023-10-24T11:31:59.986Z,1.87
2023-10-24T11:34:26.907Z,2.10
2023-10-24T11:37:03.529Z,1.70
2023-10-24T11:39:31.703Z,2.10
2023-10-24T11:41:58.351Z,2.20
2023-10-24T11:45:16.620Z,2.00
2023-10-24T11:51:35.488Z,2.40
2023-10-24T11:58:24.540Z,2.23
2023-10-24T12:01:54.375Z,2.10
2023-10-24T12:05:48.258Z,2.13
2023-10-24T12:22:16.894Z,2.20
2023-10-24T12:24:43.633Z,2.27
2023-10-24T12:27:19.546Z,1.83
2023-10-24T12:29:46.262Z,2.00
2023-10-24T12:32:13.054Z,2.20
2023-10-24T12:39:39.637Z,2.40
2023-10-24T12:47:34.270Z,2.00
2023-10-24T12:50:01.061Z,2.07
2023-10-24T12:53:21.621Z,2.00
2023-10-24T12:55:48.680Z,2.20
2023-10-24T12:58:21.112Z,2.30
2023-10-24T13:01:27.098Z,1.87
2023-10-24T13:04:48.206Z,2.00
2023-10-24T13:07:17.579Z,2.20
2023-10-24T13:09:45.110Z,1.90
2023-10-24T13:12:12.153Z,1.83
2023-10-24T13:14:45.364Z,1.87
2023-10-24T13:17:16.050Z,2.23
2023-10-24T13:20:17.494Z,2.20
2023-10-24T13:26:05.368Z,2.03
2023-10-24T13:32:32.030Z,2.00
2023-10-24T13:36:08.764Z,2.03
2023-10-24T13:37:45.602Z,1.97
2023-10-24T13:40:12.887Z,1.93
2023-10-24T13:44:07.758Z,1.90
2023-10-24T13:46:35.942Z,1.93
2023-10-24T13:49:03.118Z,1.90
2023-10-24T13:51:29.816Z,1.80
2023-10-24T13:53:56.912Z,2.37
2023-10-24T13:56:26.928Z,2.40
2023-10-24T13:58:54.198Z,2.57
2023-10-24T14:01:21.036Z,2.10
2023-10-24T14:05:04.429Z,1.90
2023-10-24T14:07:31.300Z,2.40
2023-10-24T14:09:57.956Z,2.10
2023-10-24T14:12:24.648Z,2.00
2023-10-24T14:18:24.934Z,2.00
2023-10-24T14:20:53.112Z,1.93
2023-10-24T14:23:20.089Z,2.03
2023-10-24T14:25:53.426Z,1.87
2023-10-24T14:28:20.770Z,2.00
2023-10-24T14:30:47.625Z,1.80
2023-10-24T14:33:23.669Z,1.80
2023-10-24T14:35:52.798Z,1.70
2023-10-24T14:38:19.664Z,1.80
2023-10-24T14:40:49.998Z,2.03
2023-10-24T14:43:19.670Z,2.30
2023-10-24T14:45:46.422Z,2.20
2023-10-24T14:48:13.169Z,1.90
2023-10-24T14:50:41.357Z,1.70
2023-10-24T14:53:12.579Z,1.90
2023-10-24T14:55:39.361Z,1.90
2023-10-24T14:58:07.047Z,2.10
2023-10-24T15:00:36.727Z,2.10
2023-10-24T15:03:08.586Z,2.27
2023-10-24T15:05:35.514Z,2.00
2023-10-24T15:08:02.233Z,2.00
2023-10-24T15:10:28.929Z,2.30
2023-10-24T15:13:01.929Z,2.27
2023-10-24T15:15:28.647Z,2.10
2023-10-24T15:17:55.533Z,2.20
2023-10-24T15:20:22.339Z,2.30
2023-10-24T15:22:49.151Z,2.20
2023-10-24T15:25:19.462Z,2.10
2023-10-24T15:27:46.247Z,2.10
2023-10-24T15:30:15.941Z,2.10
2023-10-24T15:33:07.581Z,2.10
2023-10-24T15:35:35.213Z,2.20
2023-10-24T15:38:02.532Z,2.23
2023-10-24T15:40:29.216Z,2.43
2023-10-24T15:43:03.480Z,2.33
2023-10-24T15:45:30.253Z,2.30
2023-10-24T15:47:58.115Z,2.60
2023-10-24T15:50:31.458Z,2.40
2023-10-24T15:52:58.149Z,2.40
2023-10-24T15:55:27.538Z,2.30
2023-10-24T15:58:06.477Z,2.43
2023-10-24T16:01:00.648Z,2.27
2023-10-24T16:03:33.419Z,2.20
2023-10-24T16:06:19.460Z,2.80
2023-10-24T16:08:46.157Z,2.17
2023-10-24T16:11:12.930Z,2.73
2023-10-24T16:13:39.719Z,2.90
2023-10-24T16:16:13.770Z,2.47
2023-10-24T16:18:40.472Z,2.80
2023-10-24T16:21:07.230Z,2.70
2023-10-24T16:23:36.504Z,2.83
2023-10-24T16:26:05.553Z,3.67
2023-10-24T16:28:39.451Z,3.57
2023-10-24T16:31:07.351Z,3.27
2023-10-24T16:33:34.005Z,3.57
2023-10-24T16:36:06.863Z,3.20
2023-10-24T16:38:33.485Z,3.37
2023-10-24T16:41:07.479Z,3.50
2023-10-24T16:43:34.221Z,3.90
2023-10-24T16:46:03.366Z,3.90
2023-10-24T16:48:35.756Z,4.00
2023-10-24T16:51:02.696Z,4.00
2023-10-24T16:53:38.529Z,4.40
2023-10-24T16:56:10.747Z,4.20
2023-10-24T16:58:37.622Z,4.50
2023-10-24T17:01:04.634Z,4.17
2023-10-24T17:03:39.585Z,3.97
2023-10-24T17:06:06.883Z,4.63
2023-10-24T17:08:36.532Z,4.90
2023-10-24T17:11:10.418Z,5.13
2023-10-24T17:13:37.309Z,5.47
2023-10-24T17:16:04.142Z,5.50
2023-10-24T17:18:30.795Z,5.57
2023-10-24T17:20:57.477Z,5.67
2023-10-24T17:23:31.809Z,6.20
2023-10-24T17:26:03.303Z,6.57
2023-10-24T17:28:33.773Z,6.60
2023-10-24T17:31:06.082Z,6.97
2023-10-24T17:33:52.521Z,7.00
2023-10-24T17:36:19.476Z,7.00
2023-10-24T17:38:46.108Z,6.80
2023-10-24T17:41:13.955Z,7.00
2023-10-24T17:43:42.916Z,8.37
2023-10-24T17:46:09.637Z,6.70
2023-10-24T17:48:36.536Z,7.83
2023-10-24T17:51:07.039Z,6.07
2023-10-24T17:53:34.544Z,6.60
2023-10-24T17:56:02.390Z,6.00
2023-10-24T17:58:29.431Z,6.03
2023-10-24T18:00:56.381Z,6.20
2023-10-24T18:03:23.327Z,5.93
2023-10-24T18:05:50.120Z,5.43
2023-10-24T18:08:17.227Z,5.93
2023-10-24T18:10:43.903Z,6.60
2023-10-24T18:13:12.614Z,6.10
2023-10-24T18:15:39.323Z,6.67
2023-10-24T18:18:09.055Z,7.90
2023-10-24T18:20:35.928Z,8.70
2023-10-24T18:23:02.689Z,7.30
2023-10-24T18:25:29.361Z,7.43
2023-10-24T18:27:56.075Z,7.57
2023-10-24T18:30:26.606Z,7.43
2023-10-24T18:32:53.453Z,8.97
2023-10-24T18:35:20.238Z,8.73
2023-10-24T18:37:46.892Z,8.67
2023-10-24T18:40:14.014Z,9.30
2023-10-24T18:42:44.900Z,9.10
2023-10-24T18:45:19.272Z,9.10
2023-10-24T18:47:49.059Z,10.73
2023-10-24T18:52:42.991Z,9.77
2023-10-24T18:55:17.698Z,10.00
2023-10-24T18:57:46.948Z,9.40
2023-10-24T19:00:17.211Z,9.20
2023-10-24T19:02:53.220Z,9.63
2023-10-24T19:05:20.666Z,10.20
2023-10-24T19:07:47.409Z,10.13
2023-10-24T19:10:15.141Z,9.90
2023-10-24T19:13:06.604Z,9.90
2023-10-24T19:15:33.553Z,9.40
2023-10-24T19:18:00.426Z,10.10
2023-10-24T19:20:27.446Z,10.07
2023-10-24T19:22:55.734Z,10.50
2023-10-24T19:25:22.717Z,9.80
2023-10-24T19:27:52.701Z,9.40
2023-10-24T19:30:19.751Z,11.20
2023-10-24T19:32:46.744Z,10.83
2023-10-24T19:35:38.883Z,11.90
2023-10-24T19:38:08.836Z,11.10
2023-10-24T19:40:39.426Z,12.53
2023-10-24T19:43:06.467Z,14.80
2023-10-24T19:45:40.245Z,20.17
2023-10-24T19:48:22.926Z,23.07
2023-10-24T19:50:49.750Z,14.60
2023-10-24T19:53:17.410Z,13.00
2023-10-24T19:55:56.272Z,13.17
2023-10-24T19:58:26.525Z,11.20
2023-10-24T20:00:53.508Z,12.20
2023-10-24T20:03:26.704Z,11.20
2023-10-24T20:05:55.650Z,13.40
2023-10-24T20:08:22.833Z,13.50
2023-10-24T20:12:33.022Z,12.27
2023-10-24T20:13:42.526Z,11.90
2023-10-24T20:16:11.571Z,12.77
2023-10-24T20:18:38.487Z,12.90
2023-10-24T20:21:31.019Z,12.70
2023-10-24T20:23:57.903Z,13.70
2023-10-24T20:26:27.451Z,14.70
2023-10-24T20:28:54.309Z,14.67
2023-10-24T20:31:24.443Z,14.23
2023-10-24T20:33:51.250Z,15.20
2023-10-24T20:36:17.945Z,14.37
2023-10-24T20:38:44.596Z,15.53
2023-10-24T20:41:13.124Z,14.17
2023-10-24T20:43:42.686Z,16.00
2023-10-24T20:46:09.448Z,15.70
2023-10-24T20:48:36.329Z,14.80
2023-10-24T20:51:03.286Z,14.70
2023-10-24T20:53:31.566Z,14.93
2023-10-24T20:56:05.237Z,15.90
2023-10-24T20:58:31.929Z,15.83
2023-10-24T21:00:58.717Z,17.00
2023-10-24T21:03:31.075Z,16.73
2023-10-24T21:05:59.609Z,16.23
2023-10-24T21:08:26.453Z,16.90
2023-10-24T21:10:59.056Z,16.30
2023-10-24T21:13:26.014Z,17.07
2023-10-24T21:16:12.694Z,17.90
2023-10-24T21:18:39.881Z,17.83
2023-10-24T21:21:06.623Z,17.17
2023-10-24T21:23:35.721Z,17.10
2023-10-24T21:26:02.535Z,18.07
2023-10-24T21:28:34.615Z,18.20
2023-10-24T21:31:06.209Z,17.67
2023-10-24T21:33:32.893Z,18.10
2023-10-24T21:36:03.906Z,17.70
2023-10-24T21:38:33.544Z,17.83
2023-10-24T21:41:00.443Z,16.93
2023-10-24T21:43:30.772Z,18.20
2023-10-24T21:46:07.927Z,15.33
2023-10-24T21:48:34.953Z,15.67
2023-10-24T21:51:05.637Z,16.93
2023-10-24T21:53:37.048Z,17.13
2023-10-24T21:56:06.492Z,16.67
2023-10-24T21:58:33.284Z,15.80
2023-10-24T22:01:07.692Z,17.27
2023-10-24T22:03:44.345Z,16.80
2023-10-24T22:06:11.261Z,16.73
2023-10-24T22:08:38.001Z,16.27
2023-10-24T22:11:07.854Z,16.80
2023-10-24T22:13:41.147Z,16.40
2023-10-24T22:16:07.903Z,16.23
2023-10-24T22:18:50.344Z,15.67
2023-10-24T22:21:17.093Z,16.13
2023-10-24T22:23:43.785Z,15.80
2023-10-24T22:26:11.408Z,16.00
2023-10-24T22:28:38.212Z,17.00
2023-10-24T22:31:08.064Z,15.40
2023-10-24T22:33:34.982Z,15.57
2023-10-24T22:36:07.731Z,16.57
2023-10-24T22:38:37.179Z,16.47
2023-10-24T22:41:06.129Z,16.90
2023-10-24T22:43:33.198Z,16.30
2023-10-24T22:46:07.822Z,15.50
2023-10-24T22:48:35.077Z,15.23
2023-10-24T22:51:04.251Z,15.37
2023-10-24T22:53:31.259Z,15.13
2023-10-24T22:55:59.891Z,15.80
2023-10-24T22:58:26.642Z,14.57
2023-10-24T23:00:53.349Z,14.63
2023-10-24T23:03:20.202Z,16.13
2023-10-24T23:05:50.013Z,15.50
2023-10-24T23:08:16.977Z,15.33
2023-10-24T23:10:43.630Z,15.60
2023-10-24T23:13:10.403Z,15.80
2023-10-24T23:15:39.507Z,15.47
2023-10-24T23:18:06.728Z,15.47
2023-10-24T23:20:33.385Z,13.40
2023-10-24T23:23:00.028Z,13.97
2023-10-24T23:25:26.656Z,13.77
2023-10-24T23:27:53.343Z,13.97
2023-10-24T23:30:23.414Z,14.63
2023-10-24T23:32:50.126Z,13.80
2023-10-24T23:35:19.609Z,13.57
2023-10-24T23:37:49.345Z,12.50
2023-10-24T23:40:19.375Z,13.17
2023-10-24T23:42:49.055Z,13.37
2023-10-24T23:45:16.354Z,12.70
2023-10-24T23:47:45.711Z,13.50
2023-10-24T23:50:20.047Z,13.13
2023-10-24T23:52:46.702Z,13.23
2023-10-24T23:55:18.934Z,12.30
2023-10-24T23:57:48.814Z,12.67
